Contact Us:
Email: info@sawbill.com
Phone: (218)663-7150
Fax: (218)663-7980
Mail: 4620 Sawbill Trail
Box 2129
Tofte, MN 55615


Powered by
Movable Type 3.15
 
Sawbill Weather History Archives: March 2016
Current Sawbill Weather History | « February 2016 | April 2016 »


Date

High
Temperature

Low
Temperature

Barometric
Pressure

Relative
Humidity 7AM

9 AM
Temperature

Moisture

Snow

3/31/16 40 24 29.82 62% 24 Trace Trace
3/30/16 42 30 29.76 85% 33 .07"
3/29/16 52 23 29.90 78% 39 .2"
3/28/16 40 22 30.16 58% 23 0
3/27/16 39 23 30.10 71% 29 0
3/26/16 35 27 30.06 66% 29 Trace Trace
3/25/16 40 22 30.10 72% 27 .08" 1"
3/24/16 36 14 30.00 78% 22 0
3/23/16 32 7 30.08 56% 14 0
3/22/16 34 7 30.12 58% 7 0
3/21/16 34 10 29.96 73% 24 0
3/20/16 31 10 30.10 61% 10 0
3/19/16 32 9 30.20 78% 20 0
3/18/16 29 4 30.26 62% 9 0
3/17/16 27 14 30.14 68% 14 Trace Trace
3/16/16 34 23 29.82 83% 23 1.07" 10"
3/15/16 43 33 29.80 94% 33 .39"
3/14/16 46 34 29.80 95% 39 .02"
3/13/16 47 36 29.82 86% 37 .11"
3/12/16 54 34 30.00 48% 40 0
3/11/16 46 32 30.10 49% 41 0
3/10/16 36 20 30.08 92% 33 0
3/9/16 35 30 30.08 77% 31 Trace Trace
3/8/16 47 31 29.92 89% 33 .06"
3/7/16 49 22 29.91 70% 36 0
3/6/16 48 28 29.90 78% 31 0
3/5/16 33 17 29.90 79% 28 0
3/4/16 26 -2 30.14 68% 17 .17" 3"
3/3/16 26 -3 30.08 45% -2 0
3/2/16 21 -10 30.10 44% 8 0
3/1/16 14 -11 30.04 35% -10 0
 


Home I Trip Planning I Rentals and Outfitting I Reservations I Campgrounds I Sawbill Store I Sawbill News I Contact

© 1997 - 2017, Sawbill Canoe Outfitters, Inc. I Privacy Policy